Time;durP1;ratioP1;P1;durP2;ratioP2;P2;SDS_P1;SDS_P2;PMS_P1;PMS_P2;Temp;Humidity;BMP_temperature;BMP_pressure;BME280_temperature;BME280_humidity;BME280_pressure;Samples;Min_cycle;Max_cycle;Signal;HPM_P1;HPM_P2
2021/12/24 00:01:29;;;;;;;0.00;0.00;;;;;;;9.40;77.32;99692.53;7362024;19;20018;-58
2021/12/24 00:03:54;;;;;;;0.10;0.10;;;;;;;9.37;77.03;99693.47;7360638;19;20006;-59
2021/12/24 00:06:20;;;;;;;0.00;0.00;;;;;;;9.35;77.10;99700.50;7360684;19;20771;-59
2021/12/24 00:08:47;;;;;;;0.00;0.00;;;;;;;9.31;76.69;99698.91;7364152;19;20006;-59
2021/12/24 00:11:13;;;;;;;0.00;0.00;;;;;;;9.29;77.08;99692.91;7362267;19;20014;-59
2021/12/24 00:13:43;;;;;;;0.00;0.00;;;;;;;9.24;76.63;99687.00;7363532;19;20022;-59
2021/12/24 00:16:21;;;;;;;0.00;0.00;;;;;;;9.22;76.71;99689.63;7359956;19;20025;-58
2021/12/24 00:37:20;;;;;;;0.00;0.00;;;;;;;8.95;75.99;99685.34;7359121;19;20034;-59
2021/12/24 00:42:44;;;;;;;0.00;0.00;;;;;;;8.88;76.20;99678.63;7257859;19;2004448;-58
2021/12/24 00:45:12;;;;;;;0.00;0.00;;;;;;;8.84;76.62;99677.88;7363905;19;20019;-57
2021/12/24 00:47:38;;;;;;;0.00;0.00;;;;;;;8.76;77.03;99674.66;7365628;19;20552;-59
2021/12/24 00:50:08;;;;;;;0.00;0.00;;;;;;;8.66;77.07;99663.69;7362060;19;20023;-58
2021/12/24 00:52:51;;;;;;;0.00;0.00;;;;;;;8.76;77.46;99685.06;7358018;19;20013;-58
2021/12/24 00:55:20;;;;;;;0.00;0.00;;;;;;;8.75;77.53;99683.38;7358834;19;20003;-59
2021/12/24 00:57:49;;;;;;;0.00;0.00;;;;;;;8.72;77.43;99678.28;7355985;19;20040;-59
2021/12/24 01:00:23;;;;;;;0.00;0.00;;;;;;;8.73;77.37;99678.22;7360375;19;20065;-58
2021/12/24 01:02:51;;;;;;;0.00;0.00;;;;;;;8.71;77.67;99677.41;7354008;19;20013;-59
2021/12/24 01:05:18;;;;;;;0.00;0.00;;;;;;;8.70;77.15;99680.06;7360727;19;20372;-60
2021/12/24 01:07:45;;;;;;;0.00;0.00;;;;;;;8.68;77.43;99672.31;7360134;19;20022;-59
2021/12/24 01:10:11;;;;;;;0.00;0.00;;;;;;;8.65;76.97;99671.53;7363016;19;20026;-57
2021/12/24 01:12:37;;;;;;;0.00;0.00;;;;;;;8.63;77.03;99668.16;7363287;19;20378;-59
2021/12/24 01:15:05;;;;;;;0.00;0.00;;;;;;;8.61;77.22;99664.72;7363422;19;20011;-58
2021/12/24 01:17:37;;;;;;;0.03;0.03;;;;;;;8.52;77.31;99656.31;7362357;19;20078;-59
2021/12/24 01:20:15;;;;;;;0.00;0.00;;;;;;;8.51;76.41;99649.38;7359262;19;20017;-58
2021/12/24 01:39:09;;;;;;;0.00;0.00;;;;;;;8.26;75.87;99648.41;7308009;19;20106;-59
2021/12/24 01:44:25;;;;;;;0.00;0.00;;;;;;;8.16;74.86;99652.19;7367184;19;20023;-57
2021/12/24 01:46:50;;;;;;;0.00;0.00;;;;;;;8.12;75.07;99654.03;7368770;19;20026;-58
2021/12/24 01:49:16;;;;;;;0.00;0.00;;;;;;;7.97;75.50;99631.94;7369357;19;20010;-58
2021/12/24 01:51:41;;;;;;;0.00;0.00;;;;;;;8.04;75.53;99645.59;7367222;19;20011;-57
2021/12/24 01:54:10;;;;;;;0.00;0.00;;;;;;;8.01;75.73;99649.16;7368483;19;20017;-59
2021/12/24 01:56:39;;;;;;;0.00;0.00;;;;;;;7.85;75.77;99627.06;7367478;19;20049;-58
2021/12/24 01:59:04;;;;;;;0.00;0.00;;;;;;;7.95;75.65;99633.72;7367769;19;20010;-58
2021/12/24 02:01:30;;;;;;;0.00;0.00;;;;;;;7.93;75.96;99640.72;7368001;19;20007;-59
2021/12/24 02:03:55;;;;;;;0.00;0.00;;;;;;;7.92;76.37;99643.38;7366896;19;20007;-59
2021/12/24 02:06:21;;;;;;;0.00;0.00;;;;;;;7.89;76.47;99639.09;7368202;19;20569;-59
2021/12/24 02:08:46;;;;;;;0.00;0.00;;;;;;;7.88;76.83;99642.59;7366726;19;20013;-59
2021/12/24 02:11:12;;;;;;;0.00;0.00;;;;;;;7.84;77.21;99625.38;7364351;19;20062;-57
2021/12/24 02:13:39;;;;;;;0.00;0.00;;;;;;;7.79;77.73;99622.06;7368811;19;20769;-59
2021/12/24 02:16:23;;;;;;;0.00;0.00;;;;;;;7.89;77.24;99633.91;7364389;19;20018;-56
2021/12/24 02:29:50;;;;;;;0.00;0.00;;;;;;;7.81;77.51;99630.69;7364071;19;20022;-58
2021/12/24 02:32:16;;;;;;;0.10;0.10;;;;;;;7.68;77.63;99613.72;7362895;19;20010;-59
2021/12/24 02:34:42;;;;;;;0.10;0.10;;;;;;;7.84;77.55;99643.56;7365117;19;20010;-59
2021/12/24 02:37:08;;;;;;;0.00;0.00;;;;;;;7.80;77.07;99636.75;7365848;19;22199;-59
2021/12/24 02:39:33;;;;;;;0.10;0.10;;;;;;;7.84;77.03;99640.97;7367745;19;20090;-59
2021/12/24 02:42:17;;;;;;;0.00;0.00;;;;;;;7.87;76.47;99640.91;7367608;19;20018;-58
2021/12/24 02:44:47;;;;;;;0.10;0.10;;;;;;;7.83;76.62;99631.47;7363905;19;20090;-59
2021/12/24 02:55:07;;;;;;;0.10;0.10;;;;;;;7.76;76.97;99632.56;7264755;19;2004585;-58
2021/12/24 02:57:34;;;;;;;0.00;0.00;;;;;;;7.72;77.37;99626.59;7358406;19;20010;-57
2021/12/24 03:00:06;;;;;;;0.03;0.03;;;;;;;7.70;77.31;99624.91;7359382;19;20010;-59
2021/12/24 03:02:32;;;;;;;0.10;0.10;;;;;;;7.71;77.40;99629.25;7366542;19;20011;-59
2021/12/24 03:04:59;;;;;;;0.00;0.00;;;;;;;7.70;77.15;99632.72;7365338;19;20137;-59
2021/12/24 03:07:24;;;;;;;0.00;0.00;;;;;;;7.69;77.49;99631.00;7362006;19;20014;-59
2021/12/24 03:09:50;;;;;;;0.10;0.10;;;;;;;7.58;76.92;99617.47;7365510;19;20018;-59
2021/12/24 03:12:15;;;;;;;0.00;0.00;;;;;;;7.69;75.95;99631.00;7364289;19;20026;-59
2021/12/24 03:14:40;;;;;;;0.00;0.00;;;;;;;7.66;76.34;99621.56;7364291;19;20063;-59
2021/12/24 03:17:11;;;;;;;0.00;0.00;;;;;;;7.65;76.77;99624.19;7362437;19;20014;-59
2021/12/24 03:19:37;;;;;;;0.10;0.10;;;;;;;7.63;76.05;99616.44;7362583;19;20014;-58
2021/12/24 03:24:38;;;;;;;0.10;0.10;;;;;;;7.58;76.40;99601.88;7363190;19;20007;-59
2021/12/24 03:27:06;;;;;;;0.00;0.00;;;;;;;7.56;76.07;99599.34;7363719;19;20010;-58
2021/12/24 03:29:32;;;;;;;0.03;0.03;;;;;;;7.52;76.22;99601.16;7363649;19;20650;-57
2021/12/24 03:31:57;;;;;;;0.10;0.10;;;;;;;7.51;75.37;99602.06;7362665;19;20010;-59
2021/12/24 03:34:23;;;;;;;0.00;0.00;;;;;;;7.47;76.02;99595.25;7363804;19;20014;-57
2021/12/24 03:36:49;;;;;;;0.00;0.00;;;;;;;7.48;76.28;99591.75;7363955;19;20020;-59
2021/12/24 03:39:15;;;;;;;0.08;0.08;;;;;;;7.35;76.74;99567.03;7359994;19;20018;-59
2021/12/24 03:41:41;;;;;;;0.00;0.00;;;;;;;7.45;76.26;99589.25;7362869;19;20038;-59
2021/12/24 03:44:10;;;;;;;0.00;0.00;;;;;;;7.41;76.03;99585.03;7364796;19;20652;-58
2021/12/24 03:46:55;;;;;;;0.00;0.00;;;;;;;7.33;76.24;99576.59;7360274;19;20014;-58
2021/12/24 03:49:37;;;;;;;0.00;0.00;;;;;;;7.43;75.88;99587.56;7362077;19;20022;-59
2021/12/24 03:54:57;;;;;;;0.10;0.10;;;;;;;7.41;75.58;99579.00;7364682;19;20018;-58
2021/12/24 03:57:25;;;;;;;0.00;0.00;;;;;;;7.39;75.41;99581.59;7357177;19;20010;-57
2021/12/24 03:59:51;;;;;;;0.10;0.10;;;;;;;7.36;76.06;99573.91;7361149;19;20010;-58
2021/12/24 04:02:17;;;;;;;0.10;0.10;;;;;;;7.36;76.07;99563.53;7362611;19;20011;-59
2021/12/24 04:04:42;;;;;;;0.00;0.00;;;;;;;6.84;76.47;99476.69;7363071;19;20014;-59
2021/12/24 04:07:08;;;;;;;0.08;0.08;;;;;;;7.34;76.19;99562.69;7358706;19;20030;-58
2021/12/24 04:09:36;;;;;;;0.03;0.03;;;;;;;7.33;76.59;99566.19;7362922;19;20033;-59
2021/12/24 04:12:02;;;;;;;0.00;0.00;;;;;;;7.26;76.86;99567.28;7362210;19;20010;-58
2021/12/24 04:14:27;;;;;;;0.00;0.00;;;;;;;7.32;77.48;99572.28;7359937;19;20039;-58
2021/12/24 04:16:52;;;;;;;0.00;0.00;;;;;;;7.33;77.30;99576.59;7364315;19;20103;-57
2021/12/24 04:24:51;;;;;;;0.05;0.05;;;;;;;7.32;76.93;99574.88;7360167;19;20027;-58
2021/12/24 04:24:58;;;;;;;0.00;0.00;;;;;;;7.32;76.71;99574.88;7363883;19;20021;-59
2021/12/24 04:27:27;;;;;;;0.00;0.00;;;;;;;7.34;76.99;99561.84;7364620;19;20026;-58
2021/12/24 04:30:00;;;;;;;0.10;0.10;;;;;;;7.33;76.95;99566.19;7364329;19;20536;-59
2021/12/24 04:32:35;;;;;;;0.10;0.10;;;;;;;7.33;76.71;99566.19;7364464;19;20010;-59
2021/12/24 04:35:16;;;;;;;0.00;0.00;;;;;;;7.31;76.41;99568.00;7367344;19;20017;-59
2021/12/24 05:01:47;;;;;;;0.00;0.00;;;;;;;7.25;77.60;99555.19;7365240;19;20025;-58
2021/12/24 05:04:14;;;;;;;0.00;0.00;;;;;;;7.27;77.85;99561.19;7372232;19;20022;-58
2021/12/24 05:06:49;;;;;;;0.00;0.00;;;;;;;7.29;77.81;99556.78;7368448;19;20054;-57
2021/12/24 05:09:20;;;;;;;0.00;0.00;;;;;;;7.29;77.55;99543.81;7371782;19;20070;-58
2021/12/24 05:11:45;;;;;;;0.05;0.05;;;;;;;7.29;77.46;99546.41;7366999;19;20482;-59
2021/12/24 05:14:15;;;;;;;0.10;0.10;;;;;;;7.28;77.70;99553.34;7372817;19;20018;-59
2021/12/24 05:16:50;;;;;;;0.00;0.00;;;;;;;7.27;77.93;99562.03;7374912;19;20513;-58
2021/12/24 05:22:00;;;;;;;0.00;0.00;;;;;;;7.26;78.33;99549.09;7368253;19;20021;-59
2021/12/24 05:24:27;;;;;;;0.00;0.00;;;;;;;7.28;78.30;99542.94;7371507;19;20015;-59
2021/12/24 05:26:59;;;;;;;0.00;0.00;;;;;;;7.24;78.21;99528.34;7372528;19;20035;-59
2021/12/24 05:29:25;;;;;;;0.00;0.00;;;;;;;7.31;78.12;99536.84;7369776;19;20010;-58
2021/12/24 05:31:51;;;;;;;0.08;0.08;;;;;;;7.32;77.75;99543.72;7373153;19;20339;-59
2021/12/24 05:34:18;;;;;;;0.00;0.00;;;;;;;7.28;77.93;99535.16;7371153;19;20018;-58
2021/12/24 05:36:45;;;;;;;0.00;0.00;;;;;;;7.17;78.19;99515.59;7372560;19;20023;-58
2021/12/24 05:39:12;;;;;;;0.00;0.00;;;;;;;7.18;77.74;99525.09;7365296;19;20074;-59
2021/12/24 05:41:38;;;;;;;0.00;0.00;;;;;;;7.29;77.75;99533.41;7369920;19;20022;-58
2021/12/24 05:44:04;;;;;;;0.00;0.00;;;;;;;7.28;78.36;99531.72;7372594;19;20410;-59
2021/12/24 05:46:30;;;;;;;0.00;0.00;;;;;;;7.28;77.76;99537.75;7370633;19;20624;-59
2021/12/24 05:48:56;;;;;;;0.00;0.00;;;;;;;7.28;77.57;99531.72;7372029;19;21210;-58
2021/12/24 05:51:21;;;;;;;0.10;0.10;;;;;;;7.21;77.74;99525.00;7366897;19;20011;-58
2021/12/24 05:53:47;;;;;;;0.00;0.00;;;;;;;7.13;77.64;99509.63;7371091;19;20010;-58
2021/12/24 05:56:13;;;;;;;0.00;0.00;;;;;;;7.20;77.97;99520.72;7368039;19;20014;-58
2021/12/24 05:58:39;;;;;;;0.00;0.00;;;;;;;7.18;77.76;99519.88;7372195;19;20100;-58
2021/12/24 06:01:04;;;;;;;0.00;0.00;;;;;;;7.18;77.77;99527.69;7370446;19;20010;-58
2021/12/24 06:03:29;;;;;;;0.00;0.00;;;;;;;7.16;77.78;99521.69;7369071;19;20124;-58
2021/12/24 06:05:55;;;;;;;0.00;0.00;;;;;;;7.17;77.51;99518.19;7369485;19;20010;-58
2021/12/24 06:08:20;;;;;;;0.05;0.05;;;;;;;7.08;77.49;99497.66;7369124;19;20010;-59
2021/12/24 06:10:46;;;;;;;0.00;0.00;;;;;;;7.17;77.84;99513.84;7366232;19;20350;-59
2021/12/24 06:13:11;;;;;;;0.00;0.00;;;;;;;7.19;78.05;99511.19;7368748;19;20057;-57
2021/12/24 06:15:46;;;;;;;0.05;0.05;;;;;;;7.21;78.28;99514.63;7369103;19;20010;-59
2021/12/24 06:18:22;;;;;;;0.00;0.00;;;;;;;7.20;78.13;99518.13;7368255;19;20010;-59
2021/12/24 06:20:47;;;;;;;0.00;0.00;;;;;;;7.20;78.51;99524.16;7368958;19;20050;-58
2021/12/24 06:23:13;;;;;;;0.10;0.10;;;;;;;7.19;78.47;99516.38;7370393;19;20466;-59
2021/12/24 06:25:39;;;;;;;0.03;0.03;;;;;;;7.12;78.44;99514.88;7366780;19;20024;-58
2021/12/24 06:28:04;;;;;;;0.00;0.00;;;;;;;7.12;78.45;99520.91;7369071;19;20347;-59
2021/12/24 06:30:31;;;;;;;0.10;0.10;;;;;;;7.29;78.52;99549.00;7369676;19;20018;-59
2021/12/24 06:32:57;;;;;;;0.00;0.00;;;;;;;7.30;78.86;99542.94;7371207;19;20031;-58
2021/12/24 06:35:24;;;;;;;0.10;0.10;;;;;;;7.32;78.50;99545.47;7369209;19;20009;-59
2021/12/24 06:37:51;;;;;;;0.10;0.10;;;;;;;7.30;78.83;99540.34;7371821;19;20034;-57
2021/12/24 06:40:16;;;;;;;0.00;0.00;;;;;;;7.36;78.60;99540.16;7366565;19;20027;-58
2021/12/24 06:42:42;;;;;;;0.00;0.00;;;;;;;7.39;78.29;99540.06;7372650;19;22374;-59
2021/12/24 06:45:08;;;;;;;0.00;0.00;;;;;;;7.40;78.29;99531.38;7370745;19;20011;-59
2021/12/24 06:47:33;;;;;;;0.00;0.00;;;;;;;7.41;77.94;99527.91;7367208;19;20077;-59
2021/12/24 06:49:59;;;;;;;0.00;0.00;;;;;;;7.42;78.01;99519.19;7370133;19;20025;-59
2021/12/24 06:52:24;;;;;;;0.00;0.00;;;;;;;7.41;77.83;99512.31;7368999;19;20018;-57
2021/12/24 06:54:50;;;;;;;0.00;0.00;;;;;;;7.40;77.23;99515.81;7364244;19;20226;-58
2021/12/24 06:57:18;;;;;;;0.00;0.00;;;;;;;7.39;77.44;99519.28;7367081;19;20768;-59
2021/12/24 06:59:44;;;;;;;0.10;0.10;;;;;;;7.27;77.65;99506.66;7362195;19;20003;-59
2021/12/24 07:02:09;;;;;;;0.00;0.00;;;;;;;7.35;77.59;99520.28;7371607;19;20529;-59
2021/12/24 07:04:35;;;;;;;0.00;0.00;;;;;;;7.34;77.76;99523.75;7365721;19;20012;-58
2021/12/24 07:07:00;;;;;;;0.00;0.00;;;;;;;7.31;77.88;99521.25;7368525;19;20017;-59
2021/12/24 07:09:26;;;;;;;0.00;0.00;;;;;;;7.32;78.19;99522.94;7368621;19;20752;-59
2021/12/24 07:11:51;;;;;;;0.00;0.00;;;;;;;7.31;78.70;99521.25;7365722;19;20006;-59
2021/12/24 07:14:17;;;;;;;0.00;0.00;;;;;;;7.32;78.63;99522.94;7369119;19;20797;-59
2021/12/24 07:16:43;;;;;;;0.00;0.00;;;;;;;7.36;79.36;99532.38;7366417;19;20355;-58
2021/12/24 07:19:08;;;;;;;0.00;0.00;;;;;;;7.41;79.30;99533.09;7369221;19;20833;-59
2021/12/24 07:21:38;;;;;;;0.00;0.00;;;;;;;7.48;79.60;99523.38;7363782;19;20022;-59
2021/12/24 07:24:04;;;;;;;0.00;0.00;;;;;;;7.58;79.67;99529.16;7368191;19;20028;-59
2021/12/24 07:26:30;;;;;;;0.00;0.00;;;;;;;7.68;80.02;99527.97;7369870;19;20030;-55
2021/12/24 07:28:55;;;;;;;0.08;0.08;;;;;;;7.77;80.18;99531.16;7363639;19;20021;-59
2021/12/24 07:31:21;;;;;;;0.00;0.00;;;;;;;7.90;80.08;99523.81;7367456;19;20058;-59
2021/12/24 07:33:46;;;;;;;0.03;0.03;;;;;;;8.00;80.09;99517.44;7364367;19;20014;-59
2021/12/24 07:36:13;;;;;;;0.00;0.00;;;;;;;7.96;79.87;99494.22;7365464;19;20077;-59
2021/12/24 07:38:40;;;;;;;0.00;0.00;;;;;;;8.18;80.09;99509.97;7366581;19;20009;-59
2021/12/24 07:41:05;;;;;;;0.00;0.00;;;;;;;8.26;79.18;99507.97;7367934;19;21475;-58
2021/12/24 07:43:31;;;;;;;0.00;0.00;;;;;;;8.21;78.66;99497.75;7367513;19;20010;-59
2021/12/24 07:45:57;;;;;;;0.00;0.00;;;;;;;8.23;78.38;99495.06;7365432;19;20794;-58
2021/12/24 07:48:28;;;;;;;0.00;0.00;;;;;;;8.15;78.64;99482.31;7368331;19;21203;-59
2021/12/24 07:53:21;;;;;;;0.00;0.00;;;;;;;8.13;78.05;99496.28;7364045;19;20026;-58
2021/12/24 07:55:46;;;;;;;0.03;0.03;;;;;;;8.21;77.78;99509.88;7366152;19;20006;-58
2021/12/24 07:58:17;;;;;;;0.00;0.00;;;;;;;8.16;78.10;99498.75;7356729;19;20013;-59
2021/12/24 08:00:44;;;;;;;0.00;0.00;;;;;;;8.13;78.36;99501.47;7367739;19;20033;-59
2021/12/24 08:03:09;;;;;;;0.00;0.00;;;;;;;8.11;78.70;99498.94;7367993;19;20014;-58
2021/12/24 08:05:39;;;;;;;0.00;0.00;;;;;;;8.10;79.02;99491.16;7364476;19;19998;-59
2021/12/24 08:08:06;;;;;;;0.00;0.00;;;;;;;8.13;79.00;99502.31;7368238;19;20029;-58
2021/12/24 08:10:33;;;;;;;0.10;0.10;;;;;;;8.18;79.29;99494.38;7353992;19;20031;-59
2021/12/24 08:12:59;;;;;;;0.00;0.00;;;;;;;8.19;79.75;99485.66;7366346;19;20011;-60
2021/12/24 08:15:24;;;;;;;0.00;0.00;;;;;;;8.31;79.60;99490.47;7364262;19;20105;-58
2021/12/24 08:17:50;;;;;;;0.00;0.00;;;;;;;8.38;79.62;99481.59;7366268;19;20006;-58
2021/12/24 08:20:15;;;;;;;0.00;0.00;;;;;;;8.44;79.55;99481.38;7362333;19;20017;-59
2021/12/24 08:22:41;;;;;;;0.00;0.00;;;;;;;8.40;79.23;99464.19;7367617;19;20072;-59
2021/12/24 08:25:09;;;;;;;0.08;0.08;;;;;;;8.58;79.01;99492.19;7364709;19;20005;-59
2021/12/24 08:27:38;;;;;;;0.00;0.00;;;;;;;8.63;79.02;99491.19;7364198;19;20013;-58
2021/12/24 08:30:05;;;;;;;0.00;0.00;;;;;;;8.66;78.64;99491.06;7362750;19;20038;-59
2021/12/24 08:32:31;;;;;;;0.00;0.00;;;;;;;8.67;78.61;99483.22;7359775;19;20050;-57
2021/12/24 08:34:56;;;;;;;0.00;0.00;;;;;;;8.71;78.73;99481.34;7366394;19;20462;-59
2021/12/24 08:37:23;;;;;;;0.10;0.10;;;;;;;8.73;78.60;99484.78;7355172;19;20087;-59
2021/12/24 08:39:49;;;;;;;0.00;0.00;;;;;;;8.78;78.72;99488.06;7355186;19;20011;-58
2021/12/24 08:42:16;;;;;;;0.10;0.10;;;;;;;8.83;78.76;99486.16;7360586;19;20020;-59
2021/12/24 08:44:42;;;;;;;0.00;0.00;;;;;;;8.85;78.59;99479.13;7364147;19;20579;-59
2021/12/24 08:47:07;;;;;;;0.00;0.00;;;;;;;8.88;78.40;99473.81;7365605;19;20465;-58
2021/12/24 08:49:32;;;;;;;0.00;0.00;;;;;;;8.91;78.81;99476.28;7358917;19;20040;-58
2021/12/24 08:51:59;;;;;;;0.03;0.03;;;;;;;8.94;78.61;99478.81;7363896;19;20022;-58
2021/12/24 08:54:25;;;;;;;0.00;0.00;;;;;;;8.98;78.86;99483.00;7364125;19;20003;-59
2021/12/24 08:56:52;;;;;;;0.00;0.00;;;;;;;9.05;79.25;99487.06;7364278;19;20470;-58
2021/12/24 08:59:17;;;;;;;0.00;0.00;;;;;;;9.06;79.42;99470.53;7364964;19;20010;-59
2021/12/24 09:01:43;;;;;;;0.00;0.00;;;;;;;9.22;80.06;99464.78;7360502;19;20038;-58
2021/12/24 09:04:13;;;;;;;0.00;0.00;;;;;;;9.34;80.39;99464.34;7360489;19;20010;-59
2021/12/24 09:06:39;;;;;;;0.00;0.00;;;;;;;9.46;80.57;99468.22;7364870;19;20037;-58
2021/12/24 09:09:06;;;;;;;0.10;0.10;;;;;;;9.58;80.53;99466.00;7365833;19;20006;-59
2021/12/24 09:11:40;;;;;;;0.00;0.00;;;;;;;9.74;80.32;99462.81;7357856;19;20059;-59
2021/12/24 09:14:06;;;;;;;0.00;0.00;;;;;;;9.86;80.41;99462.31;7359205;19;20033;-59
2021/12/24 09:16:35;;;;;;;0.00;0.00;;;;;;;9.99;80.15;99460.94;7365367;19;20449;-57
2021/12/24 09:19:05;;;;;;;0.00;0.00;;;;;;;10.08;80.35;99463.16;7366475;19;20014;-59
2021/12/24 09:21:32;;;;;;;0.00;0.00;;;;;;;10.18;80.31;99458.41;7356020;19;20015;-59
2021/12/24 09:23:58;;;;;;;0.03;0.03;;;;;;;10.22;79.95;99448.69;7362064;19;20003;-59
2021/12/24 09:26:29;;;;;;;0.08;0.08;;;;;;;10.37;80.22;99462.00;7356559;19;20021;-59
2021/12/24 09:28:59;;;;;;;0.00;0.00;;;;;;;10.44;79.84;99460.00;7362171;19;20010;-59
2021/12/24 09:31:25;;;;;;;0.00;0.00;;;;;;;10.53;79.85;99453.50;7363086;19;20002;-59
2021/12/24 09:33:52;;;;;;;0.10;0.10;;;;;;;10.57;79.77;99445.50;7365515;19;20006;-59
2021/12/24 09:36:25;;;;;;;0.00;0.00;;;;;;;10.65;79.51;99445.19;7360441;19;20010;-59
2021/12/24 09:38:53;;;;;;;0.00;0.00;;;;;;;10.70;79.76;99431.94;7364332;19;20011;-58
2021/12/24 09:41:19;;;;;;;0.00;0.00;;;;;;;10.73;79.16;99430.00;7359620;19;20039;-58
2021/12/24 09:43:44;;;;;;;0.00;0.00;;;;;;;10.76;79.33;99423.81;7356712;19;20036;-59
2021/12/24 09:46:11;;;;;;;0.00;0.00;;;;;;;10.74;79.29;99415.19;7368513;19;20006;-58
2021/12/24 09:48:37;;;;;;;0.10;0.10;;;;;;;10.82;79.31;99415.72;7359834;19;20018;-59
2021/12/24 09:51:03;;;;;;;0.00;0.00;;;;;;;10.84;79.34;99426.94;7369779;19;20045;-59
2021/12/24 09:53:28;;;;;;;0.03;0.03;;;;;;;10.86;79.41;99422.50;7366724;19;20391;-59
2021/12/24 09:55:54;;;;;;;0.05;0.05;;;;;;;10.88;79.18;99423.28;7369352;19;20088;-59
2021/12/24 09:58:19;;;;;;;0.03;0.03;;;;;;;10.89;79.17;99424.97;7364646;19;20350;-58
2021/12/24 10:00:45;;;;;;;0.10;0.10;;;;;;;10.90;79.46;99411.00;7359725;19;20082;-60
2021/12/24 10:03:10;;;;;;;0.00;0.00;;;;;;;10.92;79.17;99409.16;7369051;19;20018;-60
2021/12/24 10:05:40;;;;;;;0.00;0.00;;;;;;;10.99;79.27;99405.34;7364402;19;20054;-59
2021/12/24 10:08:08;;;;;;;0.00;0.00;;;;;;;11.02;79.29;99396.53;7361136;19;21235;-58
2021/12/24 10:10:37;;;;;;;0.10;0.10;;;;;;;11.02;79.25;99400.00;7351563;19;20097;-58
2021/12/24 10:13:30;;;;;;;0.05;0.05;;;;;;;11.07;78.76;99403.25;7369552;19;20035;-58
2021/12/24 10:16:00;;;;;;;0.03;0.03;;;;;;;11.08;78.78;99404.09;7267568;19;2004544;-59
2021/12/24 10:18:39;;;;;;;0.00;0.00;;;;;;;11.09;78.97;99396.19;7366385;19;20010;-59
2021/12/24 10:21:13;;;;;;;0.10;0.10;;;;;;;11.13;78.51;99404.72;7360350;19;20040;-59
2021/12/24 10:23:43;;;;;;;0.00;0.00;;;;;;;11.14;78.94;99393.34;7364652;19;20018;-59
2021/12/24 10:26:35;;;;;;;0.10;0.10;;;;;;;11.18;78.61;99385.31;7366325;19;20010;-58
2021/12/24 10:29:13;;;;;;;0.00;0.00;;;;;;;11.08;78.28;99372.75;7260964;19;2004422;-60
2021/12/24 10:31:38;;;;;;;0.10;0.10;;;;;;;11.15;78.73;99395.91;7367993;19;20013;-59
2021/12/24 10:34:24;;;;;;;0.10;0.10;;;;;;;11.18;78.61;99389.69;7359468;19;20006;-59
2021/12/24 10:36:49;;;;;;;0.10;0.10;;;;;;;11.17;78.14;99390.63;7367988;19;20006;-60
2021/12/24 10:39:17;;;;;;;0.00;0.00;;;;;;;11.19;78.56;99391.38;7368674;19;20029;-60
2021/12/24 10:41:45;;;;;;;0.00;0.00;;;;;;;11.16;78.50;99386.31;7369805;19;20025;-60
2021/12/24 10:44:24;;;;;;;0.00;0.00;;;;;;;11.24;78.36;99388.56;7347421;19;20026;-58
2021/12/24 10:47:12;;;;;;;0.00;0.00;;;;;;;11.25;78.55;99388.47;7363859;19;20044;-58
2021/12/24 10:50:26;;;;;;;0.05;0.05;;;;;;;11.24;78.40;99378.94;7366774;19;20010;-57
2021/12/24 10:55:21;;;;;;;0.10;0.10;;;;;;;11.32;78.63;99382.06;7369443;19;20081;-59
2021/12/24 10:57:51;;;;;;;0.00;0.00;;;;;;;11.35;78.59;99378.44;7365765;19;21131;-60
2021/12/24 11:00:21;;;;;;;0.00;0.00;;;;;;;11.39;78.60;99382.63;7368373;19;20007;-59
2021/12/24 11:02:54;;;;;;;0.00;0.00;;;;;;;11.44;78.21;99376.25;7363560;19;20035;-59
2021/12/24 11:05:30;;;;;;;0.00;0.00;;;;;;;11.50;78.54;99376.88;7365154;19;20021;-58
2021/12/24 11:07:58;;;;;;;0.00;0.00;;;;;;;11.50;78.37;99369.88;7367210;19;20061;-58
2021/12/24 11:10:28;;;;;;;0.00;0.00;;;;;;;11.55;78.25;99370.50;7361939;19;20022;-58
2021/12/24 11:13:08;;;;;;;0.08;0.08;;;;;;;11.57;78.35;99363.44;7365837;19;20036;-60
2021/12/24 11:15:41;;;;;;;0.00;0.00;;;;;;;11.58;78.23;99359.91;7366913;19;20013;-58
2021/12/24 11:18:23;;;;;;;0.00;0.00;;;;;;;11.61;78.14;99349.31;7359243;19;20018;-58
2021/12/24 11:20:58;;;;;;;0.00;0.00;;;;;;;11.61;77.79;99357.16;7362973;19;20109;-57
2021/12/24 11:23:25;;;;;;;0.00;0.00;;;;;;;11.59;77.81;99345.91;7365927;19;20010;-60
2021/12/24 11:25:54;;;;;;;0.00;0.00;;;;;;;11.62;78.18;99348.38;7365711;19;20017;-59
2021/12/24 11:28:23;;;;;;;0.00;0.00;;;;;;;11.62;77.97;99348.38;7363309;19;20018;-59
2021/12/24 11:30:52;;;;;;;0.10;0.10;;;;;;;11.65;77.71;99343.00;7363400;19;20660;-59
2021/12/24 11:33:21;;;;;;;0.10;0.10;;;;;;;11.57;78.04;99336.47;7364597;19;20098;-58
2021/12/24 11:35:48;;;;;;;0.10;0.10;;;;;;;11.65;77.66;99358.69;7366158;19;20018;-57
2021/12/24 11:38:16;;;;;;;0.05;0.05;;;;;;;11.69;77.56;99354.16;7368845;19;20018;-56
2021/12/24 11:40:44;;;;;;;0.00;0.00;;;;;;;11.68;77.93;99342.84;7368170;19;20011;-57
2021/12/24 11:43:10;;;;;;;0.10;0.10;;;;;;;11.66;77.61;99349.94;7369252;19;20035;-58
2021/12/24 11:45:35;;;;;;;0.10;0.10;;;;;;;11.68;77.55;99334.16;7368386;19;20019;-57
2021/12/24 11:48:02;;;;;;;0.00;0.00;;;;;;;11.70;77.82;99338.38;7367943;19;20056;-58
2021/12/24 11:50:29;;;;;;;0.05;0.05;;;;;;;11.71;77.91;99336.63;7363528;19;20459;-59
2021/12/24 11:52:59;;;;;;;0.03;0.03;;;;;;;11.74;77.59;99330.41;7363509;19;20395;-59
2021/12/24 11:55:31;;;;;;;0.08;0.08;;;;;;;11.73;77.42;99328.72;7365259;19;20120;-59
2021/12/24 11:58:05;;;;;;;0.10;0.10;;;;;;;11.50;77.63;99280.16;7361331;19;20017;-59
2021/12/24 12:03:10;;;;;;;0.00;0.00;;;;;;;11.78;77.85;99331.94;7346043;19;20006;-59
2021/12/24 12:05:38;;;;;;;0.10;0.10;;;;;;;11.78;77.55;99324.94;7355730;19;20837;-59
2021/12/24 12:08:25;;;;;;;0.00;0.00;;;;;;;11.82;77.53;99323.91;7357136;19;20010;-58
2021/12/24 12:11:02;;;;;;;0.10;0.10;;;;;;;11.83;77.39;99315.13;7367304;19;20017;-59
2021/12/24 12:13:52;;;;;;;0.10;0.10;;;;;;;11.86;77.46;99308.88;7360174;19;20003;-59
2021/12/24 12:16:36;;;;;;;0.10;0.10;;;;;;;11.83;77.36;99307.28;7365444;19;20035;-60
2021/12/24 12:19:24;;;;;;;0.08;0.08;;;;;;;11.88;77.55;99315.75;7368368;19;20039;-60
2021/12/24 12:24:59;;;;;;;0.10;0.10;;;;;;;11.89;77.50;99306.13;7261186;19;2004789;-60
2021/12/24 12:27:58;;;;;;;0.05;0.05;;;;;;;11.89;77.17;99300.91;7387932;19;21153;-57
2021/12/24 12:30:29;;;;;;;0.00;0.00;;;;;;;11.90;77.30;99310.44;7392819;19;20028;-57
2021/12/24 12:33:10;;;;;;;0.00;0.00;;;;;;;11.94;77.27;99301.50;7386731;19;20029;-56
2021/12/24 12:35:50;;;;;;;0.00;0.00;;;;;;;11.96;77.45;99299.66;7395023;19;20015;-56
2021/12/24 12:38:39;;;;;;;0.00;0.00;;;;;;;11.88;77.00;99291.38;7399075;19;20006;-56
2021/12/24 12:41:36;;;;;;;0.10;0.10;;;;;;;12.02;77.14;99299.38;7388673;19;20027;-56
2021/12/24 12:44:10;;;;;;;0.00;0.00;;;;;;;12.00;76.81;99295.97;7291960;19;2004713;-56
2021/12/24 12:46:40;;;;;;;0.10;0.10;;;;;;;11.99;77.16;99291.66;7400581;19;20054;-56
2021/12/24 12:49:08;;;;;;;0.10;0.10;;;;;;;12.00;77.01;99279.41;7392524;19;20012;-56
2021/12/24 12:52:02;;;;;;;0.00;0.00;;;;;;;12.02;77.02;99278.44;7396190;19;20014;-56
2021/12/24 12:54:46;;;;;;;0.00;0.00;;;;;;;11.99;76.84;99275.97;7289628;19;2004441;-56
2021/12/24 12:57:32;;;;;;;0.00;0.00;;;;;;;12.02;76.99;99278.44;7390762;19;20062;-57
2021/12/24 13:00:22;;;;;;;0.00;0.00;;;;;;;12.02;77.06;99267.97;7396344;19;20010;-56
2021/12/24 13:02:57;;;;;;;0.10;0.10;;;;;;;12.00;77.00;99264.56;7388220;19;20976;-56
2021/12/24 13:05:24;;;;;;;0.00;0.00;;;;;;;11.97;77.26;99263.91;7401251;19;20101;-56
2021/12/24 13:07:50;;;;;;;;;;;;;;;12.00;77.11;99251.47;7387709;19;20014;-56
2021/12/24 13:10:20;;;;;;;0.00;0.00;;;;;;;11.96;77.20;99263.03;7394639;19;20395;-57
2021/12/24 13:12:46;;;;;;;0.10;0.10;;;;;;;11.83;77.03;99235.81;7394215;19;20023;-56
2021/12/24 13:15:16;;;;;;;0.10;0.10;;;;;;;11.92;77.19;99261.50;7392614;19;20520;-57
2021/12/24 13:17:45;;;;;;;0.10;0.10;;;;;;;11.93;77.27;99264.03;7396758;19;20982;-56
2021/12/24 13:20:18;;;;;;;0.00;0.00;;;;;;;11.92;77.42;99254.50;7392624;19;20014;-56
2021/12/24 13:22:43;;;;;;;0.10;0.10;;;;;;;11.91;77.54;99249.34;7391632;19;20017;-56
2021/12/24 13:25:15;;;;;;;0.00;0.00;;;;;;;11.94;77.56;99254.41;7392959;19;20006;-56
2021/12/24 13:27:50;;;;;;;0.05;0.05;;;;;;;11.95;77.50;99256.09;7394790;19;20007;-56
2021/12/24 13:30:23;;;;;;;0.10;0.10;;;;;;;11.95;77.44;99243.03;7391553;19;20014;-56
2021/12/24 13:33:07;;;;;;;0.00;0.00;;;;;;;12.01;77.33;99244.47;7394256;19;20010;-56
2021/12/24 13:35:48;;;;;;;0.00;0.00;;;;;;;12.01;77.40;99239.25;7387828;19;20014;-56